首页
METAR-TAF:

METAR-TAF

机场 :

薩尼亞, 安大略省, 加拿大

纬度: 43-00N, 经度: 082-19W, 海拔: 181米

当前天气观测

该预报发布于22分钟前的09:00 UTC
风速4节,风向
温度 -10°C
湿度 79%
气压 1035 hPa
能見度: 14.5公里
天空无云

METAR: CYZR 120900Z AUTO 17004KT 9SM CLR M10/M13 A3057 RMK RVR MISG SLP367

时间: 04:22 (09:22 UTC)

预报

该预报发布于43分钟前的08:39 UTC
预报有效从12日的 09点(UTC)到 12日的 21点(UTC)
风速3节,风向多变
能見度: 10公里
散云层高于10000英尺
从 12日的 1500点(UTC)
风速10节,风向
能見度: 10公里
多云层高于3000英尺
阴天层高于12000英尺
成为
从 12日的 16点(UTC)到 12日的 18点(UTC)
风速18节,风向,有时为28节阵风

TAF: CYZR 120839Z 1209/1221 VRB03KT P6SM SCT100 FM121500 17010KT P6SM BKN030 OVC120 BECMG 1216/1218 17018G28KT RMK FCST BASED ON AUTO OBS. NXT FCST BY 121400Z

超过4000个机场的气象观测和天气预报(METAR&TAF报告)。

可查询的气象台以黄色和红色小点在地图上表示。

将鼠标移到小点上方,可查看气象台名称。

然后点击查看天气观测和预报。

如需切换地图:点击带黑十字的绿色按钮放大地图;点击带横线的绿色按钮缩小地图;或者点击绿色箭头查看邻近地区的地图。


METAR-TAF: